Ephrata, WA (98823)

8:14 PM PDT on October 20, 2014 (GMT -0700)
COM - Winchester | Change Station
CLOSE
Current Station
Personal Weather Station
Location: Ephrata, WA
Elevation: 1344 ft
Nearby Weather Stations

Elev 1344 ft 47.26 °N, 119.65 °W | Updated 12 seconds ago

Rain
Rain Mist
52.1 °F
Feels Like 52.1 °F
N
0.0
Wind Variable Wind from South
Gusts 2.0 mph

Today
High -- | Low -- °F
--% Chance of Precip.
Yesterday
High -- | Low -- °F
Precip. -- in
7:23 AM 6:01 PM
Waning Crescent, 8% visible
Pressure 29.75 in
Visibility 5.0 miles
Clouds Overcast 6000 ft
Dew Point 50 °F
Humidity 93%
Rainfall 0.14 in
Snow Depth Not available.
UV 0 out of 12
Pollen .40 out of 12
Air Quality Not available.
Flu Activity Sporadic
METAR KEPH 210253Z AUTO 11012KT 5SM RA BR OVC060 13/12 A2974 RMK AO2 PRESFR SLP073 P0015 60021 T01280117 58001

More Conditions Fewer Conditions

Pressure 29.75 in
Visibility 5.0 miles
Clouds Overcast 6000 ft
Dew Point 50 °F
Humidity 93%
Rainfall 0.14 in
Snow Depth Not available.
UV 0 out of 12
Pollen .40 out of 12
Air Quality Not available.
Flu Activity Sporadic
METAR KEPH 210253Z AUTO 11012KT 5SM RA BR OVC060 13/12 A2974 RMK AO2 PRESFR SLP073 P0015 60021 T01280117 58001

More Conditions Fewer Conditions

10-Day Weather Forecast

Almanac

Astronomy

Oct. 20, 2014 Rise Set
Actual Time 7:23 AM PDT 6:01 PM PDT
Civil Twilight 6:52 AM PDT 6:32 PM PDT
Nautical Twilight 6:17 AM PDT 7:07 PM PDT
Astronomical Twilight 5:41 AM PDT 7:43 PM PDT
Moon 4:04 AM PDT (10/20) 4:36 PM PDT (10/20)
Length of Visible Light 11h 39m
Length of Day
10h 37m
Tomorrow will be 3m 13s shorter.
Waning Crescent, 8% of the Moon is Illuminated
Today
Waning Crescent
Oct 23
New
Oct 30
First Quarter
Nov 6
Full
Nov 14
Last Quarter

Today's Extremes

State Highs State Lows

Community

WunderPhotos

Upload Photos

1,763,589 photos uploaded!

Nearby

Snow Depth

Station Depth Elevation
Trough 1 in 5300 ft
Grouse Camp 0 in 5380 ft
Blewett Pass 0 in 4270 ft
Pope Ridge 1 in 3540 ft
Sasse Ridge 0 in 4200 ft

Earthquake Activity

City Distance Mag. Time & Date
No recent earthquake activity has been reported nearby.
Minimum magnitude displayed is 2.5.

Coastal Water Temperatures

Place Temperature
No Stations Reporting

Nearby Weather Stations